sensor_id;sensor_type;location;lat;lon;timestamp;temperature;humidity
26053;DHT22;13826;51.186;4.450;2023-04-03T00:00:59;4.80;99.90
26053;DHT22;13826;51.186;4.450;2023-04-03T00:03:25;4.70;99.90
26053;DHT22;13826;51.186;4.450;2023-04-03T00:05:50;4.60;99.90
26053;DHT22;13826;51.186;4.450;2023-04-03T00:08:16;4.60;99.90
26053;DHT22;13826;51.186;4.450;2023-04-03T00:10:42;4.60;99.90
26053;DHT22;13826;51.186;4.450;2023-04-03T00:13:08;4.60;99.90
26053;DHT22;13826;51.186;4.450;2023-04-03T00:15:34;4.60;99.90
26053;DHT22;13826;51.186;4.450;2023-04-03T00:17:59;4.50;99.90
26053;DHT22;13826;51.186;4.450;2023-04-03T00:20:25;4.40;99.90
26053;DHT22;13826;51.186;4.450;2023-04-03T00:22:51;4.40;99.90
26053;DHT22;13826;51.186;4.450;2023-04-03T00:25:17;4.30;99.90
26053;DHT22;13826;51.186;4.450;2023-04-03T00:27:42;4.30;99.90
26053;DHT22;13826;51.186;4.450;2023-04-03T00:30:08;4.30;99.90
26053;DHT22;13826;51.186;4.450;2023-04-03T00:32:36;4.20;99.90
26053;DHT22;13826;51.186;4.450;2023-04-03T00:35:01;4.20;99.90
26053;DHT22;13826;51.186;4.450;2023-04-03T00:37:27;4.30;99.90
26053;DHT22;13826;51.186;4.450;2023-04-03T00:39:52;4.20;99.90
26053;DHT22;13826;51.186;4.450;2023-04-03T00:42:18;4.20;99.90
26053;DHT22;13826;51.186;4.450;2023-04-03T00:47:13;4.20;99.90
26053;DHT22;13826;51.186;4.450;2023-04-03T00:49:41;4.20;99.90
26053;DHT22;13826;51.186;4.450;2023-04-03T00:52:09;4.20;99.90
26053;DHT22;13826;51.186;4.450;2023-04-03T00:54:37;4.10;99.90
26053;DHT22;13826;51.186;4.450;2023-04-03T00:57:03;4.00;99.90
26053;DHT22;13826;51.186;4.450;2023-04-03T00:59:31;4.00;99.90
26053;DHT22;13826;51.186;4.450;2023-04-03T01:01:58;3.90;99.90
26053;DHT22;13826;51.186;4.450;2023-04-03T01:04:28;3.90;99.90
26053;DHT22;13826;51.186;4.450;2023-04-03T01:06:55;3.90;99.90
26053;DHT22;13826;51.186;4.450;2023-04-03T01:09:23;3.90;99.90
26053;DHT22;13826;51.186;4.450;2023-04-03T01:11:48;4.00;99.90
26053;DHT22;13826;51.186;4.450;2023-04-03T01:14:14;4.00;99.90
26053;DHT22;13826;51.186;4.450;2023-04-03T01:16:40;4.00;99.90
26053;DHT22;13826;51.186;4.450;2023-04-03T01:19:11;4.00;99.90
26053;DHT22;13826;51.186;4.450;2023-04-03T01:21:54;4.00;99.90
26053;DHT22;13826;51.186;4.450;2023-04-03T01:24:33;3.90;99.90
26053;DHT22;13826;51.186;4.450;2023-04-03T01:26:59;3.80;99.90
26053;DHT22;13826;51.186;4.450;2023-04-03T01:29:26;3.80;99.90
26053;DHT22;13826;51.186;4.450;2023-04-03T01:31:53;3.80;99.90
26053;DHT22;13826;51.186;4.450;2023-04-03T01:34:19;3.90;99.90
26053;DHT22;13826;51.186;4.450;2023-04-03T01:36:44;3.90;99.90
26053;DHT22;13826;51.186;4.450;2023-04-03T01:39:10;3.90;99.90
26053;DHT22;13826;51.186;4.450;2023-04-03T01:41:35;3.90;99.90
26053;DHT22;13826;51.186;4.450;2023-04-03T01:44:01;4.00;99.90
26053;DHT22;13826;51.186;4.450;2023-04-03T01:46:27;4.00;99.90
26053;DHT22;13826;51.186;4.450;2023-04-03T01:48:52;3.90;99.90
26053;DHT22;13826;51.186;4.450;2023-04-03T01:51:18;3.90;99.90
26053;DHT22;13826;51.186;4.450;2023-04-03T01:53:43;3.80;99.90
26053;DHT22;13826;51.186;4.450;2023-04-03T01:56:09;3.90;99.90
26053;DHT22;13826;51.186;4.450;2023-04-03T01:58:35;3.80;99.90
26053;DHT22;13826;51.186;4.450;2023-04-03T02:01:00;3.70;99.90
26053;DHT22;13826;51.186;4.450;2023-04-03T02:03:26;3.60;99.90
26053;DHT22;13826;51.186;4.450;2023-04-03T02:05:52;3.50;99.90
26053;DHT22;13826;51.186;4.450;2023-04-03T02:08:17;3.50;99.90
26053;DHT22;13826;51.186;4.450;2023-04-03T02:10:44;3.40;99.90
26053;DHT22;13826;51.186;4.450;2023-04-03T02:13:10;3.30;99.90
26053;DHT22;13826;51.186;4.450;2023-04-03T02:15:37;3.30;99.90
26053;DHT22;13826;51.186;4.450;2023-04-03T02:18:03;3.30;99.90
26053;DHT22;13826;51.186;4.450;2023-04-03T02:20:28;3.40;99.90
26053;DHT22;13826;51.186;4.450;2023-04-03T02:22:54;3.50;99.90
26053;DHT22;13826;51.186;4.450;2023-04-03T02:25:20;3.30;99.90
26053;DHT22;13826;51.186;4.450;2023-04-03T02:27:45;3.30;99.90
26053;DHT22;13826;51.186;4.450;2023-04-03T02:30:11;3.20;99.90
26053;DHT22;13826;51.186;4.450;2023-04-03T02:32:36;3.20;99.90
26053;DHT22;13826;51.186;4.450;2023-04-03T02:35:02;3.10;99.90
26053;DHT22;13826;51.186;4.450;2023-04-03T02:37:28;3.10;99.90
26053;DHT22;13826;51.186;4.450;2023-04-03T02:39:53;3.00;99.90
26053;DHT22;13826;51.186;4.450;2023-04-03T02:42:19;3.00;99.90
26053;DHT22;13826;51.186;4.450;2023-04-03T02:44:44;3.00;99.90
26053;DHT22;13826;51.186;4.450;2023-04-03T02:47:10;3.10;99.90
26053;DHT22;13826;51.186;4.450;2023-04-03T02:49:35;3.10;99.90
26053;DHT22;13826;51.186;4.450;2023-04-03T02:52:01;3.20;99.90
26053;DHT22;13826;51.186;4.450;2023-04-03T02:54:26;3.20;99.90
26053;DHT22;13826;51.186;4.450;2023-04-03T02:56:56;3.20;99.90
26053;DHT22;13826;51.186;4.450;2023-04-03T02:59:21;3.10;99.90
26053;DHT22;13826;51.186;4.450;2023-04-03T03:01:47;3.10;99.90
26053;DHT22;13826;51.186;4.450;2023-04-03T03:04:12;3.10;99.90
26053;DHT22;13826;51.186;4.450;2023-04-03T03:06:38;3.00;99.90
26053;DHT22;13826;51.186;4.450;2023-04-03T03:09:04;3.00;99.90
26053;DHT22;13826;51.186;4.450;2023-04-03T03:11:31;2.90;99.90
26053;DHT22;13826;51.186;4.450;2023-04-03T03:13:56;3.00;99.90
26053;DHT22;13826;51.186;4.450;2023-04-03T03:16:22;3.00;99.90
26053;DHT22;13826;51.186;4.450;2023-04-03T03:18:47;3.00;99.90
26053;DHT22;13826;51.186;4.450;2023-04-03T03:21:13;3.10;99.90
26053;DHT22;13826;51.186;4.450;2023-04-03T03:23:38;3.10;99.90
26053;DHT22;13826;51.186;4.450;2023-04-03T03:26:05;3.10;99.90
26053;DHT22;13826;51.186;4.450;2023-04-03T03:28:31;2.90;99.90
26053;DHT22;13826;51.186;4.450;2023-04-03T03:30:57;3.00;99.90
26053;DHT22;13826;51.186;4.450;2023-04-03T03:33:22;3.10;99.90
26053;DHT22;13826;51.186;4.450;2023-04-03T03:35:48;3.00;99.90
26053;DHT22;13826;51.186;4.450;2023-04-03T03:38:13;2.90;99.90
26053;DHT22;13826;51.186;4.450;2023-04-03T03:40:39;3.00;99.90
26053;DHT22;13826;51.186;4.450;2023-04-03T03:43:05;3.00;99.90
26053;DHT22;13826;51.186;4.450;2023-04-03T03:45:30;3.00;99.90
26053;DHT22;13826;51.186;4.450;2023-04-03T03:47:56;2.90;99.90
26053;DHT22;13826;51.186;4.450;2023-04-03T03:50:22;2.90;99.90
26053;DHT22;13826;51.186;4.450;2023-04-03T03:52:47;3.00;99.90
26053;DHT22;13826;51.186;4.450;2023-04-03T03:55:13;3.00;99.90
26053;DHT22;13826;51.186;4.450;2023-04-03T03:57:38;2.90;99.90
26053;DHT22;13826;51.186;4.450;2023-04-03T04:00:04;2.90;99.90
26053;DHT22;13826;51.186;4.450;2023-04-03T04:02:30;2.90;99.90
26053;DHT22;13826;51.186;4.450;2023-04-03T04:04:55;2.80;99.90
26053;DHT22;13826;51.186;4.450;2023-04-03T04:07:21;2.90;99.90
26053;DHT22;13826;51.186;4.450;2023-04-03T04:09:47;2.90;99.90
26053;DHT22;13826;51.186;4.450;2023-04-03T04:12:12;2.90;99.90
26053;DHT22;13826;51.186;4.450;2023-04-03T04:14:38;2.90;99.90
26053;DHT22;13826;51.186;4.450;2023-04-03T04:17:03;3.00;99.90
26053;DHT22;13826;51.186;4.450;2023-04-03T04:19:29;2.90;99.90
26053;DHT22;13826;51.186;4.450;2023-04-03T04:21:55;2.90;99.90
26053;DHT22;13826;51.186;4.450;2023-04-03T04:24:20;2.90;99.90
26053;DHT22;13826;51.186;4.450;2023-04-03T04:26:48;2.80;99.90
26053;DHT22;13826;51.186;4.450;2023-04-03T04:29:13;2.90;99.90
26053;DHT22;13826;51.186;4.450;2023-04-03T04:31:39;2.90;99.90
26053;DHT22;13826;51.186;4.450;2023-04-03T04:34:04;2.90;99.90
26053;DHT22;13826;51.186;4.450;2023-04-03T04:36:30;2.90;99.90
26053;DHT22;13826;51.186;4.450;2023-04-03T04:38:55;2.90;99.90
26053;DHT22;13826;51.186;4.450;2023-04-03T04:41:22;2.80;99.90
26053;DHT22;13826;51.186;4.450;2023-04-03T04:43:48;2.80;99.90
26053;DHT22;13826;51.186;4.450;2023-04-03T04:46:14;2.80;99.90
26053;DHT22;13826;51.186;4.450;2023-04-03T04:48:39;2.80;99.90
26053;DHT22;13826;51.186;4.450;2023-04-03T04:51:05;2.80;99.90
26053;DHT22;13826;51.186;4.450;2023-04-03T04:53:31;2.80;99.90
26053;DHT22;13826;51.186;4.450;2023-04-03T04:55:56;2.90;99.90
26053;DHT22;13826;51.186;4.450;2023-04-03T04:58:22;2.80;99.90
26053;DHT22;13826;51.186;4.450;2023-04-03T05:00:47;2.80;99.90
26053;DHT22;13826;51.186;4.450;2023-04-03T05:03:13;2.70;99.90
26053;DHT22;13826;51.186;4.450;2023-04-03T05:05:39;2.70;99.90
26053;DHT22;13826;51.186;4.450;2023-04-03T05:08:04;2.70;99.90
26053;DHT22;13826;51.186;4.450;2023-04-03T05:10:30;2.70;99.90
26053;DHT22;13826;51.186;4.450;2023-04-03T05:12:56;2.70;99.90
26053;DHT22;13826;51.186;4.450;2023-04-03T05:15:22;2.70;99.90
26053;DHT22;13826;51.186;4.450;2023-04-03T05:17:48;2.70;99.90
26053;DHT22;13826;51.186;4.450;2023-04-03T05:20:13;2.70;99.90
26053;DHT22;13826;51.186;4.450;2023-04-03T05:22:39;2.80;99.90
26053;DHT22;13826;51.186;4.450;2023-04-03T05:25:05;2.70;99.90
26053;DHT22;13826;51.186;4.450;2023-04-03T05:27:30;2.70;99.90
26053;DHT22;13826;51.186;4.450;2023-04-03T05:29:56;2.70;99.90
26053;DHT22;13826;51.186;4.450;2023-04-03T05:32:22;2.70;99.90
26053;DHT22;13826;51.186;4.450;2023-04-03T05:34:48;2.60;99.90
26053;DHT22;13826;51.186;4.450;2023-04-03T05:37:14;2.60;99.90
26053;DHT22;13826;51.186;4.450;2023-04-03T05:39:39;2.60;99.90
26053;DHT22;13826;51.186;4.450;2023-04-03T05:42:06;2.60;99.90
26053;DHT22;13826;51.186;4.450;2023-04-03T05:44:32;2.80;99.90
26053;DHT22;13826;51.186;4.450;2023-04-03T05:46:58;2.70;99.90
26053;DHT22;13826;51.186;4.450;2023-04-03T05:49:23;2.80;99.90
26053;DHT22;13826;51.186;4.450;2023-04-03T05:51:49;2.90;99.90
26053;DHT22;13826;51.186;4.450;2023-04-03T05:54:26;3.00;99.90
26053;DHT22;13826;51.186;4.450;2023-04-03T05:56:52;2.90;99.90
26053;DHT22;13826;51.186;4.450;2023-04-03T05:59:18;2.90;99.90
26053;DHT22;13826;51.186;4.450;2023-04-03T06:01:45;3.00;99.90
26053;DHT22;13826;51.186;4.450;2023-04-03T06:04:11;3.00;99.90
26053;DHT22;13826;51.186;4.450;2023-04-03T06:07:10;3.10;99.90
26053;DHT22;13826;51.186;4.450;2023-04-03T06:09:29;3.30;99.90
26053;DHT22;13826;51.186;4.450;2023-04-03T06:11:55;3.40;99.90
26053;DHT22;13826;51.186;4.450;2023-04-03T06:14:24;3.30;99.90
26053;DHT22;13826;51.186;4.450;2023-04-03T06:16:50;3.30;99.90
26053;DHT22;13826;51.186;4.450;2023-04-03T06:19:15;3.50;99.90
26053;DHT22;13826;51.186;4.450;2023-04-03T06:21:41;3.50;99.90
26053;DHT22;13826;51.186;4.450;2023-04-03T06:24:07;3.50;99.90
26053;DHT22;13826;51.186;4.450;2023-04-03T06:26:36;3.80;99.90
26053;DHT22;13826;51.186;4.450;2023-04-03T06:29:02;5.30;99.90
26053;DHT22;13826;51.186;4.450;2023-04-03T06:31:28;7.70;99.90
26053;DHT22;13826;51.186;4.450;2023-04-03T06:33:53;9.20;72.40
26053;DHT22;13826;51.186;4.450;2023-04-03T06:36:19;11.10;33.50
26053;DHT22;13826;51.186;4.450;2023-04-03T06:38:46;11.30;1.00
26053;DHT22;13826;51.186;4.450;2023-04-03T06:41:11;12.10;1.00
26053;DHT22;13826;51.186;4.450;2023-04-03T06:43:37;13.30;1.00
26053;DHT22;13826;51.186;4.450;2023-04-03T06:46:03;13.10;99.90
26053;DHT22;13826;51.186;4.450;2023-04-03T06:48:28;13.60;99.00
26053;DHT22;13826;51.186;4.450;2023-04-03T06:50:54;12.90;99.90
26053;DHT22;13826;51.186;4.450;2023-04-03T06:53:20;12.30;1.00
26053;DHT22;13826;51.186;4.450;2023-04-03T06:55:46;12.00;42.50
26053;DHT22;13826;51.186;4.450;2023-04-03T06:58:12;13.00;99.90
26053;DHT22;13826;51.186;4.450;2023-04-03T07:00:39;13.60;99.90
26053;DHT22;13826;51.186;4.450;2023-04-03T07:03:04;13.70;1.00
26053;DHT22;13826;51.186;4.450;2023-04-03T07:05:30;13.00;1.00
26053;DHT22;13826;51.186;4.450;2023-04-03T07:07:56;14.40;99.90
26053;DHT22;13826;51.186;4.450;2023-04-03T07:10:21;15.00;99.90
26053;DHT22;13826;51.186;4.450;2023-04-03T07:12:47;15.50;99.90
26053;DHT22;13826;51.186;4.450;2023-04-03T07:15:12;15.40;99.90
26053;DHT22;13826;51.186;4.450;2023-04-03T07:17:39;16.10;99.90
26053;DHT22;13826;51.186;4.450;2023-04-03T07:20:05;15.50;99.90
26053;DHT22;13826;51.186;4.450;2023-04-03T07:22:31;15.60;99.90
26053;DHT22;13826;51.186;4.450;2023-04-03T07:24:56;17.00;99.90
26053;DHT22;13826;51.186;4.450;2023-04-03T07:27:24;17.10;1.00
26053;DHT22;13826;51.186;4.450;2023-04-03T07:29:50;16.50;1.00
26053;DHT22;13826;51.186;4.450;2023-04-03T07:32:16;16.70;1.00
26053;DHT22;13826;51.186;4.450;2023-04-03T07:34:41;15.80;1.00
26053;DHT22;13826;51.186;4.450;2023-04-03T07:37:07;16.20;47.00
26053;DHT22;13826;51.186;4.450;2023-04-03T07:39:34;16.40;99.90
26053;DHT22;13826;51.186;4.450;2023-04-03T07:42:00;15.90;1.00
26053;DHT22;13826;51.186;4.450;2023-04-03T07:44:25;17.10;1.00
26053;DHT22;13826;51.186;4.450;2023-04-03T07:46:51;17.90;99.90
26053;DHT22;13826;51.186;4.450;2023-04-03T07:49:17;17.70;99.90
26053;DHT22;13826;51.186;4.450;2023-04-03T07:51:48;18.20;99.90
26053;DHT22;13826;51.186;4.450;2023-04-03T07:54:14;18.50;99.90
26053;DHT22;13826;51.186;4.450;2023-04-03T07:56:40;18.50;99.90
26053;DHT22;13826;51.186;4.450;2023-04-03T07:59:06;16.60;99.90
26053;DHT22;13826;51.186;4.450;2023-04-03T08:01:32;17.10;1.00
26053;DHT22;13826;51.186;4.450;2023-04-03T08:03:58;18.40;99.90
26053;DHT22;13826;51.186;4.450;2023-04-03T08:06:24;18.50;99.90
26053;DHT22;13826;51.186;4.450;2023-04-03T08:08:50;18.60;99.90
26053;DHT22;13826;51.186;4.450;2023-04-03T08:11:15;18.30;99.90
26053;DHT22;13826;51.186;4.450;2023-04-03T08:13:41;18.50;99.90
26053;DHT22;13826;51.186;4.450;2023-04-03T08:16:09;17.50;99.90
26053;DHT22;13826;51.186;4.450;2023-04-03T08:18:34;18.10;99.90
26053;DHT22;13826;51.186;4.450;2023-04-03T08:21:00;18.80;99.90
26053;DHT22;13826;51.186;4.450;2023-04-03T08:23:26;19.50;99.90
26053;DHT22;13826;51.186;4.450;2023-04-03T08:25:52;18.70;99.90
26053;DHT22;13826;51.186;4.450;2023-04-03T08:28:17;17.30;99.90
26053;DHT22;13826;51.186;4.450;2023-04-03T08:30:43;17.40;99.90
26053;DHT22;13826;51.186;4.450;2023-04-03T08:33:09;17.20;99.90
26053;DHT22;13826;51.186;4.450;2023-04-03T08:35:38;16.90;99.90
26053;DHT22;13826;51.186;4.450;2023-04-03T08:38:04;16.40;99.90
26053;DHT22;13826;51.186;4.450;2023-04-03T08:40:30;16.10;99.90
26053;DHT22;13826;51.186;4.450;2023-04-03T08:47:50;17.60;99.90
26053;DHT22;13826;51.186;4.450;2023-04-03T08:50:19;17.20;99.90
26053;DHT22;13826;51.186;4.450;2023-04-03T08:52:55;18.50;99.90
26053;DHT22;13826;51.186;4.450;2023-04-03T08:55:22;20.40;99.90
26053;DHT22;13826;51.186;4.450;2023-04-03T08:57:50;19.80;90.10
26053;DHT22;13826;51.186;4.450;2023-04-03T09:00:18;20.20;72.60
26053;DHT22;13826;51.186;4.450;2023-04-03T09:05:19;19.60;49.00
26053;DHT22;13826;51.186;4.450;2023-04-03T09:07:47;18.50;88.50
26053;DHT22;13826;51.186;4.450;2023-04-03T09:10:15;18.10;99.90
26053;DHT22;13826;51.186;4.450;2023-04-03T09:12:44;17.80;99.90
26053;DHT22;13826;51.186;4.450;2023-04-03T09:15:21;19.20;99.30
26053;DHT22;13826;51.186;4.450;2023-04-03T09:18:04;18.10;99.90
26053;DHT22;13826;51.186;4.450;2023-04-03T09:25:43;17.90;99.90
26053;DHT22;13826;51.186;4.450;2023-04-03T09:28:09;18.80;99.90
26053;DHT22;13826;51.186;4.450;2023-04-03T09:30:35;18.60;93.20
26053;DHT22;13826;51.186;4.450;2023-04-03T09:33:01;16.80;99.90
26053;DHT22;13826;51.186;4.450;2023-04-03T09:35:27;17.30;99.90
26053;DHT22;13826;51.186;4.450;2023-04-03T09:37:54;17.00;99.90
26053;DHT22;13826;51.186;4.450;2023-04-03T09:42:51;18.40;99.90
26053;DHT22;13826;51.186;4.450;2023-04-03T09:45:31;17.90;99.90
26053;DHT22;13826;51.186;4.450;2023-04-03T09:50:33;19.40;99.10
26053;DHT22;13826;51.186;4.450;2023-04-03T09:53:00;19.20;61.20
26053;DHT22;13826;51.186;4.450;2023-04-03T09:55:29;17.40;63.40
26053;DHT22;13826;51.186;4.450;2023-04-03T09:58:02;17.70;94.10
26053;DHT22;13826;51.186;4.450;2023-04-03T10:00:30;17.00;99.90
26053;DHT22;13826;51.186;4.450;2023-04-03T10:02:58;18.50;99.90
26053;DHT22;13826;51.186;4.450;2023-04-03T10:08:08;18.00;80.40
26053;DHT22;13826;51.186;4.450;2023-04-03T10:10:34;16.90;63.20
26053;DHT22;13826;51.186;4.450;2023-04-03T10:13:03;18.00;78.30
26053;DHT22;13826;51.186;4.450;2023-04-03T10:15:29;18.90;34.30
26053;DHT22;13826;51.186;4.450;2023-04-03T10:18:00;19.40;15.40
26053;DHT22;13826;51.186;4.450;2023-04-03T10:23:00;18.90;25.50
26053;DHT22;13826;51.186;4.450;2023-04-03T10:25:32;19.70;4.90
26053;DHT22;13826;51.186;4.450;2023-04-03T10:28:03;19.80;1.00
26053;DHT22;13826;51.186;4.450;2023-04-03T10:30:42;17.70;1.00
26053;DHT22;13826;51.186;4.450;2023-04-03T10:33:18;17.10;1.00
26053;DHT22;13826;51.186;4.450;2023-04-03T10:36:05;17.60;1.00
26053;DHT22;13826;51.186;4.450;2023-04-03T10:41:15;18.70;1.00
26053;DHT22;13826;51.186;4.450;2023-04-03T10:56:34;19.00;1.00
26053;DHT22;13826;51.186;4.450;2023-04-03T10:59:12;19.10;1.00
26053;DHT22;13826;51.186;4.450;2023-04-03T11:01:38;18.50;1.00
26053;DHT22;13826;51.186;4.450;2023-04-03T11:04:05;17.40;1.00
26053;DHT22;13826;51.186;4.450;2023-04-03T11:06:37;16.30;1.00
26053;DHT22;13826;51.186;4.450;2023-04-03T11:09:17;16.50;1.00
26053;DHT22;13826;51.186;4.450;2023-04-03T11:11:44;18.10;1.00
26053;DHT22;13826;51.186;4.450;2023-04-03T11:16:58;17.50;1.00
26053;DHT22;13826;51.186;4.450;2023-04-03T11:19:29;18.20;1.00
26053;DHT22;13826;51.186;4.450;2023-04-03T11:22:04;17.40;1.00
26053;DHT22;13826;51.186;4.450;2023-04-03T11:24:31;17.40;1.00
26053;DHT22;13826;51.186;4.450;2023-04-03T11:26:58;17.40;1.00
26053;DHT22;13826;51.186;4.450;2023-04-03T11:29:29;17.50;1.00
26053;DHT22;13826;51.186;4.450;2023-04-03T11:34:45;17.50;1.00
26053;DHT22;13826;51.186;4.450;2023-04-03T11:37:15;17.10;1.00
26053;DHT22;13826;51.186;4.450;2023-04-03T11:39:47;16.20;1.00
26053;DHT22;13826;51.186;4.450;2023-04-03T11:44:40;15.30;1.00
26053;DHT22;13826;51.186;4.450;2023-04-03T11:47:10;15.40;1.00
26053;DHT22;13826;51.186;4.450;2023-04-03T12:02:57;14.50;1.00
26053;DHT22;13826;51.186;4.450;2023-04-03T12:05:24;15.30;1.00
26053;DHT22;13826;51.186;4.450;2023-04-03T12:10:34;14.80;1.00
26053;DHT22;13826;51.186;4.450;2023-04-03T12:13:00;15.30;1.00
26053;DHT22;13826;51.186;4.450;2023-04-03T12:25:49;14.20;1.00
26053;DHT22;13826;51.186;4.450;2023-04-03T12:28:15;13.30;1.00
26053;DHT22;13826;51.186;4.450;2023-04-03T12:30:41;12.60;1.00
26053;DHT22;13826;51.186;4.450;2023-04-03T12:35:36;11.80;1.00
26053;DHT22;13826;51.186;4.450;2023-04-03T12:48:28;11.40;1.00
26053;DHT22;13826;51.186;4.450;2023-04-03T12:50:54;11.20;1.00
26053;DHT22;13826;51.186;4.450;2023-04-03T12:53:21;11.30;8.10
26053;DHT22;13826;51.186;4.450;2023-04-03T12:55:53;11.40;5.70
26053;DHT22;13826;51.186;4.450;2023-04-03T12:58:23;11.10;4.70
26053;DHT22;13826;51.186;4.450;2023-04-03T13:00:59;11.20;22.20
26053;DHT22;13826;51.186;4.450;2023-04-03T13:03:25;11.30;22.80
26053;DHT22;13826;51.186;4.450;2023-04-03T13:05:53;11.30;16.80
26053;DHT22;13826;51.186;4.450;2023-04-03T13:08:19;11.30;34.40
26053;DHT22;13826;51.186;4.450;2023-04-03T13:10:47;11.30;42.30
26053;DHT22;13826;51.186;4.450;2023-04-03T13:13:14;11.60;45.00
26053;DHT22;13826;51.186;4.450;2023-04-03T13:15:43;11.80;83.80
26053;DHT22;13826;51.186;4.450;2023-04-03T13:18:24;11.50;93.80
26053;DHT22;13826;51.186;4.450;2023-04-03T13:20:49;11.20;99.90
26053;DHT22;13826;51.186;4.450;2023-04-03T13:23:15;11.20;66.70
26053;DHT22;13826;51.186;4.450;2023-04-03T13:25:44;11.00;97.80
26053;DHT22;13826;51.186;4.450;2023-04-03T13:28:15;11.00;99.90
26053;DHT22;13826;51.186;4.450;2023-04-03T13:30:54;11.10;99.90
26053;DHT22;13826;51.186;4.450;2023-04-03T13:33:22;11.00;99.90
26053;DHT22;13826;51.186;4.450;2023-04-03T13:35:48;11.00;99.90
26053;DHT22;13826;51.186;4.450;2023-04-03T13:40:55;10.90;99.90
26053;DHT22;13826;51.186;4.450;2023-04-03T13:43:25;11.00;99.90
26053;DHT22;13826;51.186;4.450;2023-04-03T13:48:20;10.90;71.70
26053;DHT22;13826;51.186;4.450;2023-04-03T13:51:01;10.90;91.70
26053;DHT22;13826;51.186;4.450;2023-04-03T13:53:28;11.10;98.60
26053;DHT22;13826;51.186;4.450;2023-04-03T13:55:56;11.20;99.90
26053;DHT22;13826;51.186;4.450;2023-04-03T13:58:24;11.20;99.90
26053;DHT22;13826;51.186;4.450;2023-04-03T14:03:45;11.60;99.90
26053;DHT22;13826;51.186;4.450;2023-04-03T14:06:13;11.60;99.90
26053;DHT22;13826;51.186;4.450;2023-04-03T14:08:39;11.40;99.90
26053;DHT22;13826;51.186;4.450;2023-04-03T14:11:08;11.40;99.90
26053;DHT22;13826;51.186;4.450;2023-04-03T14:13:34;11.20;99.90
26053;DHT22;13826;51.186;4.450;2023-04-03T14:16:00;11.20;99.90
26053;DHT22;13826;51.186;4.450;2023-04-03T14:18:26;11.30;99.90
26053;DHT22;13826;51.186;4.450;2023-04-03T14:20:52;11.30;69.20
26053;DHT22;13826;51.186;4.450;2023-04-03T14:23:17;11.00;58.70
26053;DHT22;13826;51.186;4.450;2023-04-03T14:25:43;10.90;52.10
26053;DHT22;13826;51.186;4.450;2023-04-03T14:28:27;10.90;77.60
26053;DHT22;13826;51.186;4.450;2023-04-03T14:30:52;10.80;59.30
26053;DHT22;13826;51.186;4.450;2023-04-03T14:33:19;11.00;99.90
26053;DHT22;13826;51.186;4.450;2023-04-03T14:35:45;11.10;99.90
26053;DHT22;13826;51.186;4.450;2023-04-03T14:38:16;11.00;99.90
26053;DHT22;13826;51.186;4.450;2023-04-03T14:40:45;11.00;99.90
26053;DHT22;13826;51.186;4.450;2023-04-03T14:43:12;11.00;99.90
26053;DHT22;13826;51.186;4.450;2023-04-03T14:45:37;11.00;99.90
26053;DHT22;13826;51.186;4.450;2023-04-03T14:48:03;11.10;96.20
26053;DHT22;13826;51.186;4.450;2023-04-03T14:50:29;11.20;96.00
26053;DHT22;13826;51.186;4.450;2023-04-03T14:52:56;10.90;66.80
26053;DHT22;13826;51.186;4.450;2023-04-03T14:55:23;11.10;99.90
26053;DHT22;13826;51.186;4.450;2023-04-03T14:57:49;11.00;99.90
26053;DHT22;13826;51.186;4.450;2023-04-03T15:00:16;11.00;99.90
26053;DHT22;13826;51.186;4.450;2023-04-03T15:02:41;10.90;99.90
26053;DHT22;13826;51.186;4.450;2023-04-03T15:05:08;11.10;99.90
26053;DHT22;13826;51.186;4.450;2023-04-03T15:07:38;10.90;79.60
26053;DHT22;13826;51.186;4.450;2023-04-03T15:10:17;10.80;94.60
26053;DHT22;13826;51.186;4.450;2023-04-03T15:12:43;10.80;89.30
26053;DHT22;13826;51.186;4.450;2023-04-03T15:15:09;11.00;99.90
26053;DHT22;13826;51.186;4.450;2023-04-03T15:17:35;11.10;99.90
26053;DHT22;13826;51.186;4.450;2023-04-03T15:20:01;11.00;99.90
26053;DHT22;13826;51.186;4.450;2023-04-03T15:22:27;11.10;99.90
26053;DHT22;13826;51.186;4.450;2023-04-03T15:24:52;11.10;99.90
26053;DHT22;13826;51.186;4.450;2023-04-03T15:27:18;11.00;99.90
26053;DHT22;13826;51.186;4.450;2023-04-03T15:29:44;11.00;99.90
26053;DHT22;13826;51.186;4.450;2023-04-03T15:32:10;11.10;99.90
26053;DHT22;13826;51.186;4.450;2023-04-03T15:34:36;11.10;99.90
26053;DHT22;13826;51.186;4.450;2023-04-03T15:37:02;11.10;99.90
26053;DHT22;13826;51.186;4.450;2023-04-03T15:39:27;11.10;99.90
26053;DHT22;13826;51.186;4.450;2023-04-03T15:41:53;11.10;99.90
26053;DHT22;13826;51.186;4.450;2023-04-03T15:44:19;11.10;99.90
26053;DHT22;13826;51.186;4.450;2023-04-03T15:46:45;11.10;99.90
26053;DHT22;13826;51.186;4.450;2023-04-03T15:49:11;11.00;99.90
26053;DHT22;13826;51.186;4.450;2023-04-03T15:51:37;10.90;99.90
26053;DHT22;13826;51.186;4.450;2023-04-03T15:54:02;10.70;99.90
26053;DHT22;13826;51.186;4.450;2023-04-03T15:56:28;10.80;99.90
26053;DHT22;13826;51.186;4.450;2023-04-03T15:58:53;10.70;99.90
26053;DHT22;13826;51.186;4.450;2023-04-03T16:01:19;10.60;99.90
26053;DHT22;13826;51.186;4.450;2023-04-03T16:03:44;10.60;99.90
26053;DHT22;13826;51.186;4.450;2023-04-03T16:06:14;10.60;99.90
26053;DHT22;13826;51.186;4.450;2023-04-03T16:08:40;10.50;99.90
26053;DHT22;13826;51.186;4.450;2023-04-03T16:11:06;10.50;99.90
26053;DHT22;13826;51.186;4.450;2023-04-03T16:13:31;10.40;99.90
26053;DHT22;13826;51.186;4.450;2023-04-03T16:15:58;10.40;99.90
26053;DHT22;13826;51.186;4.450;2023-04-03T16:18:23;10.40;99.90
26053;DHT22;13826;51.186;4.450;2023-04-03T16:20:49;10.50;99.90
26053;DHT22;13826;51.186;4.450;2023-04-03T16:23:15;10.50;99.90
26053;DHT22;13826;51.186;4.450;2023-04-03T16:25:40;10.40;99.90
26053;DHT22;13826;51.186;4.450;2023-04-03T16:28:11;10.40;99.90
26053;DHT22;13826;51.186;4.450;2023-04-03T16:30:36;10.40;99.90
26053;DHT22;13826;51.186;4.450;2023-04-03T16:33:02;10.30;99.90
26053;DHT22;13826;51.186;4.450;2023-04-03T16:35:28;10.30;99.90
26053;DHT22;13826;51.186;4.450;2023-04-03T16:37:53;10.20;1.00
26053;DHT22;13826;51.186;4.450;2023-04-03T16:40:19;10.10;1.00
26053;DHT22;13826;51.186;4.450;2023-04-03T16:42:45;10.10;1.00
26053;DHT22;13826;51.186;4.450;2023-04-03T16:45:11;10.10;1.00
26053;DHT22;13826;51.186;4.450;2023-04-03T16:47:36;10.10;1.00
26053;DHT22;13826;51.186;4.450;2023-04-03T16:50:02;10.10;1.00
26053;DHT22;13826;51.186;4.450;2023-04-03T16:52:28;10.00;1.00
26053;DHT22;13826;51.186;4.450;2023-04-03T16:54:53;10.00;1.00
26053;DHT22;13826;51.186;4.450;2023-04-03T16:57:21;10.10;1.00
26053;DHT22;13826;51.186;4.450;2023-04-03T16:59:46;10.10;1.00
26053;DHT22;13826;51.186;4.450;2023-04-03T17:02:12;10.00;1.00
26053;DHT22;13826;51.186;4.450;2023-04-03T17:04:37;9.90;1.00
26053;DHT22;13826;51.186;4.450;2023-04-03T17:07:03;9.90;1.00
26053;DHT22;13826;51.186;4.450;2023-04-03T17:09:32;9.80;1.00
26053;DHT22;13826;51.186;4.450;2023-04-03T17:11:57;9.80;1.00
26053;DHT22;13826;51.186;4.450;2023-04-03T17:14:23;9.70;1.00